Time;durP1;ratioP1;P1;durP2;ratioP2;P2;SDS_P1;SDS_P2;PMS_P1;PMS_P2;Temp;Humidity;BMP_temperature;BMP_pressure;BME280_temperature;BME280_humidity;BME280_pressure;Samples;Min_cycle;Max_cycle;Signal;HPM_P1;HPM_P2
2023/05/28 00:00:13;;;;;;;;;;;11.80;97.50;;;;;;5100720;28;20281;-67
2023/05/28 00:02:40;;;;;;;;;;;12.00;96.80;;;;;;5094202;28;19908;-65
2023/05/28 00:05:06;;;;;;;;;;;12.00;96.30;;;;;;5094117;28;19908;-67
2023/05/28 00:07:33;;;;;;;;;;;12.10;96.30;;;;;;5094437;28;19908;-67
2023/05/28 00:10:00;;;;;;;;;;;12.20;96.70;;;;;;5108932;28;19922;-64
2023/05/28 00:12:26;;;;;;;;;;;12.30;96.20;;;;;;5100945;28;19954;-66
2023/05/28 00:14:53;;;;;;;;;;;12.40;96.00;;;;;;5095643;28;19962;-67
2023/05/28 00:17:20;;;;;;;;;;;12.50;96.00;;;;;;5114502;28;20261;-67
2023/05/28 00:19:47;;;;;;;;;;;12.60;96.20;;;;;;5114356;28;19935;-67
2023/05/28 00:22:13;;;;;;;;;;;12.70;96.20;;;;;;5114685;28;19994;-65
2023/05/28 00:24:40;;;;;;;;;;;12.80;95.40;;;;;;5101371;28;20443;-66
2023/05/28 00:27:07;;;;;;;;;;;12.80;95.40;;;;;;5094086;28;19915;-67
2023/05/28 00:29:33;;;;;;;;;;;13.00;95.00;;;;;;5103977;28;19920;-67
2023/05/28 00:32:00;;;;;;;;;;;13.10;94.50;;;;;;5075972;28;19926;-67
2023/05/28 00:34:27;;;;;;;;;;;13.10;94.70;;;;;;5074756;28;20011;-67
2023/05/28 00:36:54;;;;;;;;;;;13.30;94.70;;;;;;5109323;28;19916;-68
2023/05/28 00:39:20;;;;;;;;;;;13.40;94.10;;;;;;5111071;28;19915;-65
2023/05/28 00:41:47;;;;;;;;;;;13.40;93.70;;;;;;5091995;28;20401;-67
2023/05/28 00:44:14;;;;;;;;;;;13.50;93.80;;;;;;5091450;28;19912;-67
2023/05/28 00:46:41;;;;;;;;;;;13.50;93.60;;;;;;5092173;28;19908;-66
2023/05/28 00:49:10;;;;;;;;;;;13.70;93.80;;;;;;5113417;28;20391;-67
2023/05/28 00:51:36;;;;;;;;;;;13.70;93.20;;;;;;5114399;28;20280;-66
2023/05/28 00:54:06;;;;;;;;;;;13.90;93.70;;;;;;5113413;28;21447;-66
2023/05/28 00:56:34;;;;;;;;;;;14.00;93.00;;;;;;5114101;28;19915;-67
2023/05/28 00:59:01;;;;;;;;;;;14.20;92.70;;;;;;5113942;28;19908;-64
2023/05/28 01:01:29;;;;;;;;;;;14.20;92.50;;;;;;5093756;28;19912;-66
2023/05/28 01:03:56;;;;;;;;;;;14.40;92.40;;;;;;5093937;28;19995;-66
2023/05/28 01:06:22;;;;;;;;;;;14.50;92.20;;;;;;5093850;28;19905;-65
2023/05/28 01:08:49;;;;;;;;;;;14.60;92.50;;;;;;5105761;28;19916;-66
2023/05/28 01:11:17;;;;;;;;;;;14.80;92.60;;;;;;5105228;28;20434;-68
2023/05/28 01:13:45;;;;;;;;;;;14.80;91.40;;;;;;5093787;28;19915;-67
2023/05/28 01:16:11;;;;;;;;;;;14.90;91.70;;;;;;5093754;28;19916;-67
2023/05/28 01:18:39;;;;;;;;;;;15.00;91.40;;;;;;5091990;28;20015;-66
2023/05/28 01:21:06;;;;;;;;;;;15.10;91.30;;;;;;5097557;28;19969;-67
2023/05/28 01:23:42;;;;;;;;;;;15.30;91.90;;;;;;5111420;28;19911;-67
2023/05/28 01:26:08;;;;;;;;;;;15.60;90.90;;;;;;5103294;28;19920;-68
2023/05/28 01:28:35;;;;;;;;;;;15.70;91.00;;;;;;5109685;28;19916;-67
2023/05/28 01:31:02;;;;;;;;;;;15.80;90.40;;;;;;5112319;28;19923;-67
2023/05/28 01:33:30;;;;;;;;;;;15.90;90.50;;;;;;5112589;28;20056;-66
2023/05/28 01:35:58;;;;;;;;;;;15.90;90.10;;;;;;5113394;28;20391;-63
2023/05/28 01:38:26;;;;;;;;;;;16.00;90.10;;;;;;5110158;28;19951;-67
2023/05/28 01:40:54;;;;;;;;;;;15.90;89.30;;;;;;5091568;28;19912;-67
2023/05/28 01:43:21;;;;;;;;;;;15.80;89.80;;;;;;5102708;28;19916;-67
2023/05/28 01:45:48;;;;;;;;;;;15.90;90.00;;;;;;5096770;28;19973;-67
2023/05/28 01:48:15;;;;;;;;;;;15.90;90.20;;;;;;5113107;28;19908;-67
2023/05/28 01:50:42;;;;;;;;;;;15.90;89.80;;;;;;5112738;28;19919;-68
2023/05/28 01:53:08;;;;;;;;;;;16.00;90.10;;;;;;5101958;28;19926;-66
2023/05/28 01:55:35;;;;;;;;;;;16.10;90.10;;;;;;5092815;28;19912;-66
2023/05/28 01:58:02;;;;;;;;;;;16.20;90.20;;;;;;5112628;28;19953;-66
2023/05/28 02:00:28;;;;;;;;;;;16.20;90.10;;;;;;5110488;28;19920;-68
2023/05/28 02:02:55;;;;;;;;;;;16.30;89.40;;;;;;5092686;28;19944;-67
2023/05/28 02:05:22;;;;;;;;;;;16.40;89.30;;;;;;5106170;28;19912;-65
2023/05/28 02:07:49;;;;;;;;;;;16.50;89.20;;;;;;5112891;28;19908;-67
2023/05/28 02:10:15;;;;;;;;;;;16.60;88.70;;;;;;5112758;28;20288;-68
2023/05/28 02:12:42;;;;;;;;;;;16.60;88.30;;;;;;5113058;28;20309;-68
2023/05/28 02:15:10;;;;;;;;;;;16.60;87.70;;;;;;5111851;28;19965;-68
2023/05/28 02:17:37;;;;;;;;;;;16.60;88.80;;;;;;5107495;28;19935;-68
2023/05/28 02:20:04;;;;;;;;;;;16.60;88.90;;;;;;5110389;28;19908;-67
2023/05/28 02:22:31;;;;;;;;;;;16.70;87.90;;;;;;5110378;28;19928;-63
2023/05/28 02:24:57;;;;;;;;;;;16.90;87.80;;;;;;5107373;28;20372;-64
2023/05/28 02:27:24;;;;;;;;;;;16.90;87.60;;;;;;5109496;28;19911;-66
2023/05/28 02:29:51;;;;;;;;;;;16.90;87.30;;;;;;5110910;28;19927;-66
2023/05/28 02:32:18;;;;;;;;;;;16.90;87.20;;;;;;5107936;28;19916;-67
2023/05/28 02:34:45;;;;;;;;;;;16.90;87.40;;;;;;5112245;28;20374;-66
2023/05/28 02:37:11;;;;;;;;;;;16.80;88.00;;;;;;5099821;28;20280;-66
2023/05/28 02:39:38;;;;;;;;;;;16.80;87.10;;;;;;5092509;28;19920;-66
2023/05/28 02:42:05;;;;;;;;;;;16.90;87.00;;;;;;5092318;28;19955;-65
2023/05/28 02:44:31;;;;;;;;;;;16.90;86.60;;;;;;5092321;28;20007;-66
2023/05/28 02:46:58;;;;;;;;;;;17.00;86.00;;;;;;5103417;28;19947;-67
2023/05/28 02:49:25;;;;;;;;;;;17.00;86.40;;;;;;5097624;28;19916;-67
2023/05/28 02:51:51;;;;;;;;;;;17.20;86.90;;;;;;5092806;28;20388;-66
2023/05/28 02:54:18;;;;;;;;;;;17.20;87.10;;;;;;5096132;28;19931;-66
2023/05/28 02:56:45;;;;;;;;;;;17.40;87.40;;;;;;5105361;28;19908;-67
2023/05/28 02:59:11;;;;;;;;;;;17.40;86.20;;;;;;5116544;28;19908;-67
2023/05/28 03:01:38;;;;;;;;;;;17.60;85.60;;;;;;5099883;28;19959;-68
2023/05/28 03:04:04;;;;;;;;;;;17.60;84.50;;;;;;5103627;28;19919;-64
2023/05/28 03:06:33;;;;;;;;;;;17.70;84.60;;;;;;5103171;28;19922;-66
2023/05/28 03:09:00;;;;;;;;;;;17.80;85.00;;;;;;5116512;28;19954;-67
2023/05/28 03:11:27;;;;;;;;;;;18.10;85.30;;;;;;5115563;28;19912;-67
2023/05/28 03:13:53;;;;;;;;;;;18.20;83.70;;;;;;5095948;28;19912;-66
2023/05/28 03:16:20;;;;;;;;;;;18.30;83.30;;;;;;5096664;28;19934;-63
2023/05/28 03:18:46;;;;;;;;;;;18.40;81.90;;;;;;5095933;28;19909;-66
2023/05/28 03:21:13;;;;;;;;;;;18.50;82.30;;;;;;5095888;28;20253;-66
2023/05/28 03:23:40;;;;;;;;;;;18.70;82.70;;;;;;5098050;28;19997;-66
2023/05/28 03:26:06;;;;;;;;;;;19.10;82.60;;;;;;5115532;28;19988;-67
2023/05/28 03:28:34;;;;;;;;;;;19.50;81.70;;;;;;5116023;28;20355;-65
2023/05/28 03:31:01;;;;;;;;;;;19.50;79.50;;;;;;5114289;28;20000;-68
2023/05/28 03:33:28;;;;;;;;;;;19.40;81.10;;;;;;5114344;28;19920;-66
2023/05/28 03:35:54;;;;;;;;;;;19.60;80.60;;;;;;5111662;28;19908;-66
2023/05/28 03:38:21;;;;;;;;;;;20.10;79.50;;;;;;5114614;28;19910;-67
2023/05/28 03:40:48;;;;;;;;;;;20.30;78.10;;;;;;5115413;28;19988;-66
2023/05/28 03:43:15;;;;;;;;;;;20.30;79.40;;;;;;5100710;28;19918;-65
2023/05/28 03:45:41;;;;;;;;;;;20.80;77.70;;;;;;5107121;28;19994;-64
2023/05/28 03:48:08;;;;;;;;;;;20.80;76.80;;;;;;5115666;28;20007;-66
2023/05/28 03:50:35;;;;;;;;;;;20.60;76.60;;;;;;5115402;28;19915;-65
2023/05/28 03:53:01;;;;;;;;;;;21.00;77.10;;;;;;5113839;28;20424;-66
2023/05/28 03:55:28;;;;;;;;;;;21.80;76.50;;;;;;5115050;28;20342;-66
2023/05/28 03:57:55;;;;;;;;;;;22.40;74.90;;;;;;5115394;28;20060;-68
2023/05/28 04:00:22;;;;;;;;;;;22.70;73.50;;;;;;5104855;28;19916;-65
2023/05/28 04:02:48;;;;;;;;;;;22.50;74.00;;;;;;5094471;28;19992;-64
2023/05/28 04:05:15;;;;;;;;;;;22.20;72.80;;;;;;5102582;28;19912;-66
2023/05/28 04:07:41;;;;;;;;;;;21.90;74.00;;;;;;5115418;28;19908;-64
2023/05/28 04:10:08;;;;;;;;;;;21.80;73.60;;;;;;5115166;28;20364;-66
2023/05/28 04:12:35;;;;;;;;;;;21.70;74.30;;;;;;5102949;28;19916;-65
2023/05/28 04:15:03;;;;;;;;;;;21.40;73.70;;;;;;5101036;28;19919;-65
2023/05/28 04:17:30;;;;;;;;;;;21.10;75.40;;;;;;5115102;28;20006;-66
2023/05/28 04:19:57;;;;;;;;;;;20.70;75.30;;;;;;5115128;28;20402;-63
2023/05/28 04:22:24;;;;;;;;;;;20.30;77.30;;;;;;5114958;28;19908;-64
2023/05/28 04:24:55;;;;;;;;;;;19.90;77.80;;;;;;5114144;28;19912;-64
2023/05/28 04:27:22;;;;;;;;;;;19.60;78.40;;;;;;5111218;28;19973;-66
2023/05/28 04:29:48;;;;;;;;;;;19.50;79.40;;;;;;5114719;28;19965;-67
2023/05/28 04:32:15;;;;;;;;;;;19.50;78.90;;;;;;5114692;28;19928;-66
2023/05/28 04:34:42;;;;;;;;;;;19.50;79.10;;;;;;5114634;28;20373;-65
2023/05/28 04:37:08;;;;;;;;;;;19.30;78.90;;;;;;5114801;28;19911;-67
2023/05/28 04:39:35;;;;;;;;;;;19.00;79.00;;;;;;5096313;28;20336;-67
2023/05/28 04:42:03;;;;;;;;;;;18.70;78.30;;;;;;5093944;28;20388;-67
2023/05/28 04:44:30;;;;;;;;;;;18.60;79.30;;;;;;5108613;28;19916;-65
2023/05/28 04:46:58;;;;;;;;;;;18.40;79.70;;;;;;5106125;28;20284;-67
2023/05/28 04:49:25;;;;;;;;;;;18.20;79.60;;;;;;5114167;28;19959;-66
2023/05/28 04:51:52;;;;;;;;;;;18.10;79.90;;;;;;5112328;28;19959;-63
2023/05/28 04:54:19;;;;;;;;;;;17.90;80.10;;;;;;5105515;28;19935;-65
2023/05/28 04:56:45;;;;;;;;;;;17.70;80.70;;;;;;5093956;28;19999;-65
2023/05/28 04:59:12;;;;;;;;;;;17.60;81.00;;;;;;5094120;28;19915;-64
2023/05/28 05:01:41;;;;;;;;;;;17.50;81.40;;;;;;5093673;28;19907;-66
2023/05/28 05:04:08;;;;;;;;;;;17.40;81.60;;;;;;5093800;28;19995;-63
2023/05/28 05:06:35;;;;;;;;;;;17.30;82.10;;;;;;5093854;28;19916;-65
2023/05/28 05:09:04;;;;;;;;;;;17.40;82.70;;;;;;5112021;28;20010;-66
2023/05/28 05:11:31;;;;;;;;;;;17.60;82.00;;;;;;5113547;28;19915;-64
2023/05/28 05:13:58;;;;;;;;;;;17.80;81.30;;;;;;5113305;28;20452;-65
2023/05/28 05:16:25;;;;;;;;;;;18.00;80.80;;;;;;5109961;28;19912;-67
2023/05/28 05:18:51;;;;;;;;;;;18.30;81.00;;;;;;5112389;28;20336;-65
2023/05/28 05:21:18;;;;;;;;;;;18.60;80.20;;;;;;5112772;28;19950;-66
2023/05/28 05:23:45;;;;;;;;;;;18.70;79.80;;;;;;5110574;28;19908;-66
2023/05/28 05:26:16;;;;;;;;;;;18.70;79.20;;;;;;5113198;28;19908;-65
2023/05/28 05:28:44;;;;;;;;;;;18.70;79.10;;;;;;5112550;28;19950;-68
2023/05/28 05:31:13;;;;;;;;;;;18.60;79.20;;;;;;5104535;28;20013;-65
2023/05/28 05:33:41;;;;;;;;;;;18.60;79.00;;;;;;5093058;28;19912;-66
2023/05/28 05:36:08;;;;;;;;;;;18.50;80.20;;;;;;5093161;28;19936;-64
2023/05/28 05:38:35;;;;;;;;;;;18.60;79.80;;;;;;5111930;28;19915;-66
2023/05/28 05:41:02;;;;;;;;;;;18.70;80.30;;;;;;5113352;28;20009;-67
2023/05/28 05:43:29;;;;;;;;;;;18.60;79.90;;;;;;5099458;28;19916;-65
2023/05/28 05:45:56;;;;;;;;;;;18.30;79.50;;;;;;5092708;28;19915;-66
2023/05/28 05:48:25;;;;;;;;;;;18.00;80.90;;;;;;5109830;28;19908;-67
2023/05/28 05:50:55;;;;;;;;;;;17.60;80.60;;;;;;5097325;28;20308;-66
2023/05/28 05:53:22;;;;;;;;;;;17.40;82.40;;;;;;5092835;28;19908;-67
2023/05/28 05:55:48;;;;;;;;;;;17.20;83.50;;;;;;5105341;28;20265;-65
2023/05/28 05:58:15;;;;;;;;;;;17.10;84.30;;;;;;5112633;28;19908;-66
2023/05/28 06:00:43;;;;;;;;;;;17.00;84.20;;;;;;5113047;28;19908;-65
2023/05/28 06:03:09;;;;;;;;;;;16.90;83.90;;;;;;5113222;28;19990;-65
2023/05/28 06:05:36;;;;;;;;;;;16.70;84.50;;;;;;5113041;28;19908;-67
2023/05/28 06:08:03;;;;;;;;;;;16.70;86.00;;;;;;5110534;28;19970;-66
2023/05/28 06:10:29;;;;;;;;;;;16.50;85.50;;;;;;5112963;28;19916;-65
2023/05/28 06:12:56;;;;;;;;;;;16.40;86.30;;;;;;5113086;28;19951;-67
2023/05/28 06:15:24;;;;;;;;;;;16.40;86.00;;;;;;5113078;28;19930;-68
2023/05/28 06:17:51;;;;;;;;;;;16.30;86.30;;;;;;5105529;28;19970;-66
2023/05/28 06:20:19;;;;;;;;;;;16.20;87.30;;;;;;5092349;28;19920;-66
2023/05/28 06:22:46;;;;;;;;;;;16.20;86.90;;;;;;5092202;28;19961;-65
2023/05/28 06:25:12;;;;;;;;;;;16.00;86.60;;;;;;5092348;28;19908;-65
2023/05/28 06:27:39;;;;;;;;;;;16.00;87.30;;;;;;5106606;28;20410;-67
2023/05/28 06:30:06;;;;;;;;;;;16.00;86.80;;;;;;5111070;28;19919;-66
2023/05/28 06:32:32;;;;;;;;;;;15.90;87.90;;;;;;5093794;28;19966;-65
2023/05/28 06:34:59;;;;;;;;;;;15.90;88.70;;;;;;5112178;28;19998;-66
2023/05/28 06:37:26;;;;;;;;;;;15.90;87.80;;;;;;5111530;28;20006;-64
2023/05/28 06:39:52;;;;;;;;;;;15.90;87.70;;;;;;5109540;28;20463;-65
2023/05/28 06:42:19;;;;;;;;;;;15.80;88.30;;;;;;5110236;28;19920;-67
2023/05/28 06:44:46;;;;;;;;;;;15.80;88.20;;;;;;5111991;28;19918;-67
2023/05/28 06:47:12;;;;;;;;;;;15.70;88.70;;;;;;5112438;28;19908;-66
2023/05/28 06:49:39;;;;;;;;;;;15.70;88.70;;;;;;5103896;28;19923;-67
2023/05/28 06:52:06;;;;;;;;;;;15.60;89.00;;;;;;5091972;28;19995;-67
2023/05/28 06:54:33;;;;;;;;;;;15.50;89.50;;;;;;5096132;28;19912;-69
2023/05/28 06:56:59;;;;;;;;;;;15.50;89.80;;;;;;5112540;28;19949;-68
2023/05/28 06:59:26;;;;;;;;;;;15.40;90.00;;;;;;5112076;28;19908;-67
2023/05/28 07:01:53;;;;;;;;;;;15.40;90.30;;;;;;5111865;28;20344;-68
2023/05/28 07:04:19;;;;;;;;;;;15.30;90.30;;;;;;5104210;28;19908;-67
2023/05/28 07:06:46;;;;;;;;;;;15.30;90.40;;;;;;5093232;28;19919;-67
2023/05/28 07:09:12;;;;;;;;;;;15.30;90.70;;;;;;5091857;28;19958;-68
2023/05/28 07:11:39;;;;;;;;;;;15.20;90.40;;;;;;5109319;28;20020;-69
2023/05/28 07:14:06;;;;;;;;;;;15.20;90.60;;;;;;5093537;28;19912;-67
2023/05/28 07:16:33;;;;;;;;;;;15.10;90.70;;;;;;5092313;28;19916;-67
2023/05/28 07:18:59;;;;;;;;;;;15.00;90.80;;;;;;5092170;28;19908;-67
2023/05/28 07:21:26;;;;;;;;;;;14.90;91.10;;;;;;5106033;28;20016;-64
2023/05/28 07:23:52;;;;;;;;;;;14.90;91.30;;;;;;5110868;28;19999;-64
2023/05/28 07:26:20;;;;;;;;;;;14.80;91.50;;;;;;5092144;28;20365;-67
2023/05/28 07:28:46;;;;;;;;;;;14.70;91.70;;;;;;5091942;28;20345;-66
2023/05/28 07:31:13;;;;;;;;;;;14.70;91.80;;;;;;5091179;28;20010;-67
2023/05/28 07:33:39;;;;;;;;;;;14.60;92.00;;;;;;5092871;28;19952;-67
2023/05/28 07:36:06;;;;;;;;;;;14.60;92.10;;;;;;5099065;28;19961;-68
2023/05/28 07:38:33;;;;;;;;;;;14.60;92.20;;;;;;5114270;28;19912;-67
2023/05/28 07:41:00;;;;;;;;;;;14.60;92.50;;;;;;5115759;28;19911;-68
2023/05/28 07:43:26;;;;;;;;;;;14.60;92.50;;;;;;5097505;28;20327;-67
2023/05/28 07:45:53;;;;;;;;;;;14.50;92.60;;;;;;5095331;28;20415;-68
2023/05/28 07:48:19;;;;;;;;;;;14.40;92.80;;;;;;5095316;28;19953;-68
2023/05/28 07:50:46;;;;;;;;;;;14.40;92.90;;;;;;5095298;28;20434;-66
2023/05/28 07:53:13;;;;;;;;;;;14.30;93.10;;;;;;5095828;28;19961;-67
2023/05/28 07:55:39;;;;;;;;;;;14.30;93.40;;;;;;5115556;28;19908;-64
2023/05/28 07:58:06;;;;;;;;;;;14.20;93.50;;;;;;5096355;28;19919;-69
2023/05/28 08:00:33;;;;;;;;;;;14.20;93.70;;;;;;5094524;28;19953;-69
2023/05/28 08:02:59;;;;;;;;;;;14.20;93.90;;;;;;5094483;28;19913;-68
2023/05/28 08:05:26;;;;;;;;;;;14.10;94.10;;;;;;5113445;28;19918;-68
2023/05/28 08:07:53;;;;;;;;;;;14.10;94.20;;;;;;5094278;28;19981;-68
2023/05/28 08:10:19;;;;;;;;;;;14.00;94.30;;;;;;5094428;28;20426;-68
2023/05/28 08:12:46;;;;;;;;;;;14.00;94.30;;;;;;5094430;28;19908;-67
2023/05/28 08:15:12;;;;;;;;;;;14.00;94.40;;;;;;5094379;28;19909;-67
2023/05/28 08:17:39;;;;;;;;;;;14.00;94.70;;;;;;5097183;28;20276;-68
2023/05/28 08:20:09;;;;;;;;;;;14.00;94.80;;;;;;5114850;28;19969;-64
2023/05/28 08:22:36;;;;;;;;;;;13.90;94.80;;;;;;5114741;28;20507;-67
2023/05/28 08:25:03;;;;;;;;;;;14.00;95.10;;;;;;5095467;28;19935;-69
2023/05/28 08:27:31;;;;;;;;;;;13.90;95.00;;;;;;5115053;28;19908;-70
2023/05/28 08:29:57;;;;;;;;;;;13.90;95.00;;;;;;5106595;28;19916;-69
2023/05/28 08:32:24;;;;;;;;;;;13.90;95.40;;;;;;5094411;28;20369;-67
2023/05/28 08:34:50;;;;;;;;;;;13.80;95.50;;;;;;5094303;28;19908;-67
2023/05/28 08:37:17;;;;;;;;;;;13.80;95.90;;;;;;5094507;28;19908;-66
2023/05/28 08:39:44;;;;;;;;;;;13.70;96.20;;;;;;5094261;28;19961;-64
2023/05/28 08:42:10;;;;;;;;;;;13.70;96.40;;;;;;5099760;28;19967;-66
2023/05/28 08:44:37;;;;;;;;;;;13.60;96.30;;;;;;5111873;28;20308;-66
2023/05/28 08:47:04;;;;;;;;;;;13.60;96.20;;;;;;5112381;28;20353;-65
2023/05/28 08:49:35;;;;;;;;;;;13.50;96.50;;;;;;5111184;28;19966;-67
2023/05/28 08:52:02;;;;;;;;;;;13.50;96.90;;;;;;5112019;28;19916;-67
2023/05/28 08:54:29;;;;;;;;;;;13.40;97.10;;;;;;5104725;28;20258;-65
2023/05/28 08:56:56;;;;;;;;;;;13.30;97.30;;;;;;5092393;28;19992;-67
2023/05/28 08:59:24;;;;;;;;;;;13.20;97.50;;;;;;5113573;28;19918;-69
2023/05/28 09:01:51;;;;;;;;;;;13.20;97.80;;;;;;5114348;28;20330;-69
2023/05/28 09:04:18;;;;;;;;;;;13.10;98.10;;;;;;5113585;28;19961;-67
2023/05/28 09:06:45;;;;;;;;;;;13.00;98.30;;;;;;5110318;28;19965;-68
2023/05/28 09:09:12;;;;;;;;;;;13.00;98.70;;;;;;5113229;28;19908;-67
2023/05/28 09:11:38;;;;;;;;;;;12.90;99.10;;;;;;5113414;28;19962;-66
2023/05/28 09:14:12;;;;;;;;;;;12.80;99.50;;;;;;5113726;28;19908;-65
2023/05/28 09:16:42;;;;;;;;;;;12.80;99.90;;;;;;5113752;28;19914;-66
2023/05/28 09:19:09;;;;;;;;;;;12.70;99.90;;;;;;5113080;28;20329;-68
2023/05/28 09:21:36;;;;;;;;;;;12.60;99.90;;;;;;5114118;28;19907;-63
2023/05/28 09:24:03;;;;;;;;;;;12.60;99.90;;;;;;5113665;28;19907;-69
2023/05/28 09:26:31;;;;;;;;;;;12.50;99.90;;;;;;5097944;28;19912;-67
2023/05/28 09:28:58;;;;;;;;;;;12.40;99.90;;;;;;5093058;28;19995;-66
2023/05/28 09:31:29;;;;;;;;;;;12.30;99.90;;;;;;5093854;28;19920;-68
2023/05/28 09:33:56;;;;;;;;;;;12.30;99.90;;;;;;5097189;28;19918;-64
2023/05/28 09:36:22;;;;;;;;;;;12.30;99.90;;;;;;5113211;28;19960;-66
2023/05/28 09:38:49;;;;;;;;;;;12.20;99.90;;;;;;5113408;28;20360;-67
2023/05/28 09:41:20;;;;;;;;;;;12.10;99.90;;;;;;5111172;28;20365;-66
2023/05/28 09:43:47;;;;;;;;;;;12.10;99.90;;;;;;5096781;28;19913;-65
2023/05/28 09:46:14;;;;;;;;;;;12.10;99.90;;;;;;5091550;28;19908;-66
2023/05/28 09:48:40;;;;;;;;;;;12.00;99.90;;;;;;5092283;28;20364;-67
2023/05/28 09:51:08;;;;;;;;;;;12.00;99.90;;;;;;5092347;28;19923;-64
2023/05/28 09:53:36;;;;;;;;;;;11.90;99.90;;;;;;5106392;28;19962;-65
2023/05/28 09:56:03;;;;;;;;;;;11.80;99.90;;;;;;5112900;28;19931;-68
2023/05/28 09:58:36;;;;;;;;;;;11.90;99.90;;;;;;5108669;28;19965;-68
2023/05/28 10:01:05;;;;;;;;;;;11.80;99.90;;;;;;5091961;28;19947;-65
2023/05/28 10:03:37;;;;;;;;;;;11.70;99.90;;;;;;5092319;28;19908;-67
2023/05/28 10:06:20;;;;;;;;;;;11.70;99.90;;;;;;5101823;28;19923;-67
2023/05/28 10:08:50;;;;;;;;;;;11.70;99.90;;;;;;5092423;28;19962;-68
2023/05/28 10:11:21;;;;;;;;;;;11.70;99.90;;;;;;5092225;28;20023;-65
2023/05/28 10:13:48;;;;;;;;;;;11.70;99.90;;;;;;5073949;28;19911;-67
2023/05/28 10:16:15;;;;;;;;;;;11.70;99.90;;;;;;5094175;28;19919;-68
2023/05/28 10:18:42;;;;;;;;;;;11.60;99.90;;;;;;5110535;28;19990;-68
2023/05/28 10:21:10;;;;;;;;;;;11.50;99.90;;;;;;5111380;28;20356;-66
2023/05/28 10:23:38;;;;;;;;;;;11.50;99.90;;;;;;5110412;28;20316;-67
2023/05/28 10:26:04;;;;;;;;;;;11.50;99.90;;;;;;5111443;28;20327;-66
2023/05/28 10:28:31;;;;;;;;;;;11.40;99.90;;;;;;5110181;28;19908;-67
2023/05/28 10:31:04;;;;;;;;;;;11.50;99.90;;;;;;5101881;28;19926;-65
2023/05/28 10:33:31;;;;;;;;;;;11.40;99.90;;;;;;5100993;28;19912;-65
2023/05/28 10:36:01;;;;;;;;;;;11.40;99.90;;;;;;5091707;28;19912;-67
2023/05/28 10:38:29;;;;;;;;;;;11.30;99.90;;;;;;5092128;28;19909;-67
2023/05/28 10:41:02;;;;;;;;;;;11.30;99.90;;;;;;5094747;28;20011;-65
2023/05/28 10:43:38;;;;;;;;;;;11.30;99.90;;;;;;5106972;28;19916;-65
2023/05/28 10:46:11;;;;;;;;;;;11.30;99.90;;;;;;5110981;28;19911;-66
2023/05/28 10:48:39;;;;;;;;;;;11.20;99.90;;;;;;5096343;28;20376;-68
2023/05/28 10:51:06;;;;;;;;;;;11.20;99.90;;;;;;5092198;28;19961;-65
2023/05/28 10:53:33;;;;;;;;;;;11.10;99.90;;;;;;5093215;28;19912;-67
2023/05/28 10:56:01;;;;;;;;;;;11.10;99.90;;;;;;5092167;28;19908;-67
2023/05/28 10:58:29;;;;;;;;;;;11.00;99.90;;;;;;5090321;28;20002;-66
2023/05/28 11:01:24;;;;;;;;;;;11.10;99.90;;;;;;5112658;28;20370;-65
2023/05/28 11:03:54;;;;;;;;;;;11.00;99.90;;;;;;5089162;28;19908;-65
2023/05/28 11:06:21;;;;;;;;;;;11.00;99.90;;;;;;5109646;28;19994;-65
2023/05/28 11:08:48;;;;;;;;;;;11.00;99.90;;;;;;5099961;28;20062;-66
2023/05/28 11:11:16;;;;;;;;;;;10.90;99.90;;;;;;5091660;28;19923;-68
2023/05/28 11:13:43;;;;;;;;;;;10.90;99.90;;;;;;5097080;28;20361;-67
2023/05/28 11:16:10;;;;;;;;;;;10.90;99.90;;;;;;5115380;28;20634;-68
2023/05/28 11:18:38;;;;;;;;;;;10.90;99.90;;;;;;5115392;28;19912;-68
2023/05/28 11:21:11;;;;;;;;;;;10.90;99.90;;;;;;5114879;28;19918;-65
2023/05/28 11:23:39;;;;;;;;;;;11.00;99.90;;;;;;5115105;28;19908;-67
2023/05/28 11:26:06;;;;;;;;;;;11.00;99.90;;;;;;5115359;28;19914;-68
2023/05/28 11:28:32;;;;;;;;;;;11.10;99.90;;;;;;5115651;28;19907;-67
2023/05/28 11:30:59;;;;;;;;;;;11.00;99.90;;;;;;5111866;28;19915;-68
2023/05/28 11:33:29;;;;;;;;;;;11.00;99.90;;;;;;5114152;28;20307;-68
2023/05/28 11:35:56;;;;;;;;;;;11.00;99.90;;;;;;5115705;28;19939;-68
2023/05/28 11:38:23;;;;;;;;;;;10.90;99.90;;;;;;5115822;28;19908;-68
2023/05/28 11:40:50;;;;;;;;;;;11.00;99.90;;;;;;5114705;28;19912;-67
2023/05/28 11:43:16;;;;;;;;;;;10.90;99.90;;;;;;5112636;28;19916;-68
2023/05/28 11:45:43;;;;;;;;;;;10.90;99.90;;;;;;5094982;28;20388;-67
2023/05/28 11:48:13;;;;;;;;;;;11.00;99.90;;;;;;5095778;28;19919;-66
2023/05/28 11:50:39;;;;;;;;;;;11.00;99.90;;;;;;5099451;28;19931;-66
2023/05/28 11:53:06;;;;;;;;;;;11.00;99.90;;;;;;5114824;28;19950;-62
2023/05/28 11:55:32;;;;;;;;;;;10.90;99.90;;;;;;5109808;28;20254;-65
2023/05/28 11:58:00;;;;;;;;;;;10.90;99.90;;;;;;5094452;28;19908;-66
2023/05/28 12:00:32;;;;;;;;;;;10.80;99.90;;;;;;5097154;28;19915;-66
2023/05/28 12:02:59;;;;;;;;;;;10.80;99.90;;;;;;5114805;28;20009;-66
2023/05/28 12:05:26;;;;;;;;;;;10.80;99.90;;;;;;5076637;28;20296;-67
2023/05/28 12:07:54;;;;;;;;;;;10.80;99.90;;;;;;5113698;28;20372;-65
2023/05/28 12:10:22;;;;;;;;;;;10.80;99.90;;;;;;5113651;28;19920;-67
2023/05/28 12:12:48;;;;;;;;;;;10.80;99.90;;;;;;5113763;28;20404;-68
2023/05/28 12:15:15;;;;;;;;;;;10.70;99.90;;;;;;5113705;28;20075;-68
2023/05/28 12:17:43;;;;;;;;;;;10.70;99.90;;;;;;5114041;28;19912;-64
2023/05/28 12:20:15;;;;;;;;;;;10.70;99.90;;;;;;5111194;28;20280;-65
2023/05/28 12:22:42;;;;;;;;;;;10.70;99.90;;;;;;5114812;28;19908;-68
2023/05/28 12:25:09;;;;;;;;;;;10.70;99.90;;;;;;5114702;28;19954;-64
2023/05/28 12:27:36;;;;;;;;;;;10.70;99.90;;;;;;5095764;28;19912;-63
2023/05/28 12:30:06;;;;;;;;;;;10.70;99.90;;;;;;5114379;28;19927;-66
2023/05/28 12:32:36;;;;;;;;;;;10.60;99.90;;;;;;5113772;28;20393;-66
2023/05/28 12:35:03;;;;;;;;;;;10.70;99.90;;;;;;5113817;28;19918;-66
2023/05/28 12:37:29;;;;;;;;;;;10.60;99.90;;;;;;5114609;28;19908;-64
2023/05/28 12:39:56;;;;;;;;;;;10.60;99.90;;;;;;5113688;28;19908;-66
2023/05/28 12:42:23;;;;;;;;;;;10.60;99.90;;;;;;5113226;28;19927;-68
2023/05/28 12:44:49;;;;;;;;;;;10.60;99.90;;;;;;5111317;28;19919;-65
2023/05/28 12:47:16;;;;;;;;;;;10.60;99.90;;;;;;5114132;28;20296;-66
2023/05/28 12:49:43;;;;;;;;;;;10.50;99.90;;;;;;5113239;28;19912;-66
2023/05/28 12:52:09;;;;;;;;;;;10.50;99.90;;;;;;5113127;28;19919;-64
2023/05/28 12:54:36;;;;;;;;;;;10.50;99.90;;;;;;5112931;28;19999;-63
2023/05/28 12:57:03;;;;;;;;;;;10.50;99.90;;;;;;5100847;28;20416;-66
2023/05/28 12:59:30;;;;;;;;;;;10.40;99.90;;;;;;5094082;28;19912;-65
2023/05/28 13:01:56;;;;;;;;;;;10.40;99.90;;;;;;5094198;28;19956;-67
2023/05/28 13:04:23;;;;;;;;;;;10.40;99.90;;;;;;5094078;28;20309;-68
2023/05/28 13:06:51;;;;;;;;;;;10.30;99.90;;;;;;5093925;28;19908;-67
2023/05/28 13:09:18;;;;;;;;;;;10.30;99.90;;;;;;5110337;28;19961;-67
2023/05/28 13:11:44;;;;;;;;;;;10.30;99.90;;;;;;5100435;28;19912;-66
2023/05/28 13:14:11;;;;;;;;;;;10.30;99.90;;;;;;5107414;28;19960;-64
2023/05/28 13:16:38;;;;;;;;;;;10.40;99.90;;;;;;5113861;28;20328;-65
2023/05/28 13:19:05;;;;;;;;;;;10.20;99.90;;;;;;5114102;28;20003;-66
2023/05/28 13:21:32;;;;;;;;;;;10.20;99.90;;;;;;5113242;28;20364;-65
2023/05/28 13:23:59;;;;;;;;;;;10.20;99.90;;;;;;5113509;28;19915;-66
2023/05/28 13:26:26;;;;;;;;;;;10.20;99.90;;;;;;5113885;28;19908;-64
2023/05/28 13:28:53;;;;;;;;;;;10.20;99.90;;;;;;5114222;28;20006;-66
2023/05/28 13:31:20;;;;;;;;;;;10.20;99.90;;;;;;5114080;28;19916;-68
2023/05/28 13:33:46;;;;;;;;;;;10.10;99.90;;;;;;5094814;28;19915;-64
2023/05/28 13:36:13;;;;;;;;;;;10.20;99.90;;;;;;5092878;28;19920;-65
2023/05/28 13:38:43;;;;;;;;;;;10.10;99.90;;;;;;5099178;28;20281;-67
2023/05/28 13:41:10;;;;;;;;;;;10.10;99.90;;;;;;5113240;28;19964;-64
2023/05/28 13:43:37;;;;;;;;;;;10.00;99.90;;;;;;5108828;28;19912;-66
2023/05/28 13:46:04;;;;;;;;;;;10.00;99.90;;;;;;5092992;28;19908;-66
2023/05/28 13:48:31;;;;;;;;;;;10.00;99.90;;;;;;5093187;28;19915;-67
2023/05/28 13:50:58;;;;;;;;;;;10.00;99.90;;;;;;5093423;28;19916;-66
2023/05/28 13:53:25;;;;;;;;;;;10.00;99.90;;;;;;5094536;28;19927;-64
2023/05/28 13:55:51;;;;;;;;;;;10.00;99.90;;;;;;5092919;28;19926;-68
2023/05/28 13:58:18;;;;;;;;;;;10.00;99.90;;;;;;5092879;28;19945;-66
2023/05/28 14:00:45;;;;;;;;;;;10.00;99.90;;;;;;5093244;28;19908;-65
2023/05/28 14:03:14;;;;;;;;;;;10.10;99.90;;;;;;5093045;28;19908;-67
2023/05/28 14:05:44;;;;;;;;;;;10.10;99.90;;;;;;5099108;28;19938;-63
2023/05/28 14:08:11;;;;;;;;;;;10.00;99.90;;;;;;5113134;28;19960;-66
2023/05/28 14:10:37;;;;;;;;;;;10.00;99.90;;;;;;5113369;28;20288;-63
2023/05/28 14:13:04;;;;;;;;;;;10.10;99.90;;;;;;5113420;28;19953;-66
2023/05/28 14:15:31;;;;;;;;;;;10.10;99.90;;;;;;5097169;28;19916;-66